sensor_id;sensor_type;location;lat;lon;timestamp;temperature;humidity
34766;DHT22;20984;43.508;1.504;2024-02-26T00:02:13;7.70;99.90
34766;DHT22;20984;43.508;1.504;2024-02-26T00:04:38;7.80;99.90
34766;DHT22;20984;43.508;1.504;2024-02-26T00:07:04;7.70;99.90
34766;DHT22;20984;43.508;1.504;2024-02-26T00:09:29;7.70;99.90
34766;DHT22;20984;43.508;1.504;2024-02-26T00:11:55;7.60;99.90
34766;DHT22;20984;43.508;1.504;2024-02-26T00:14:21;7.60;99.90
34766;DHT22;20984;43.508;1.504;2024-02-26T00:16:46;7.50;99.90
34766;DHT22;20984;43.508;1.504;2024-02-26T00:19:12;7.40;99.90
34766;DHT22;20984;43.508;1.504;2024-02-26T00:21:41;7.40;99.90
34766;DHT22;20984;43.508;1.504;2024-02-26T00:24:09;7.40;99.90
34766;DHT22;20984;43.508;1.504;2024-02-26T00:26:34;7.30;99.90
34766;DHT22;20984;43.508;1.504;2024-02-26T00:29:00;7.30;99.90
34766;DHT22;20984;43.508;1.504;2024-02-26T00:31:25;7.20;99.90
34766;DHT22;20984;43.508;1.504;2024-02-26T00:33:51;7.10;99.90
34766;DHT22;20984;43.508;1.504;2024-02-26T00:36:16;7.00;99.90
34766;DHT22;20984;43.508;1.504;2024-02-26T00:38:44;7.00;99.90
34766;DHT22;20984;43.508;1.504;2024-02-26T00:41:11;6.90;99.90
34766;DHT22;20984;43.508;1.504;2024-02-26T00:43:37;6.80;99.90
34766;DHT22;20984;43.508;1.504;2024-02-26T00:46:04;6.70;99.90
34766;DHT22;20984;43.508;1.504;2024-02-26T00:48:30;6.70;99.90
34766;DHT22;20984;43.508;1.504;2024-02-26T00:50:55;6.70;99.90
34766;DHT22;20984;43.508;1.504;2024-02-26T00:53:21;6.70;99.90
34766;DHT22;20984;43.508;1.504;2024-02-26T00:55:46;6.80;99.90
34766;DHT22;20984;43.508;1.504;2024-02-26T00:58:12;6.90;99.90
34766;DHT22;20984;43.508;1.504;2024-02-26T01:00:37;7.00;99.90
34766;DHT22;20984;43.508;1.504;2024-02-26T01:03:03;7.10;99.90
34766;DHT22;20984;43.508;1.504;2024-02-26T01:05:30;7.20;99.90
34766;DHT22;20984;43.508;1.504;2024-02-26T01:07:55;7.30;99.90
34766;DHT22;20984;43.508;1.504;2024-02-26T01:10:21;7.30;99.90
34766;DHT22;20984;43.508;1.504;2024-02-26T01:12:46;7.30;99.90
34766;DHT22;20984;43.508;1.504;2024-02-26T01:15:12;7.30;99.90
34766;DHT22;20984;43.508;1.504;2024-02-26T01:17:38;7.30;99.90
34766;DHT22;20984;43.508;1.504;2024-02-26T01:20:04;7.30;99.90
34766;DHT22;20984;43.508;1.504;2024-02-26T01:22:30;7.30;99.90
34766;DHT22;20984;43.508;1.504;2024-02-26T01:24:55;7.20;99.90
34766;DHT22;20984;43.508;1.504;2024-02-26T01:27:22;7.20;99.90
34766;DHT22;20984;43.508;1.504;2024-02-26T01:29:52;7.00;99.90
34766;DHT22;20984;43.508;1.504;2024-02-26T01:32:17;6.90;99.90
34766;DHT22;20984;43.508;1.504;2024-02-26T01:34:43;6.80;99.90
34766;DHT22;20984;43.508;1.504;2024-02-26T01:37:08;6.60;99.90
34766;DHT22;20984;43.508;1.504;2024-02-26T01:39:34;6.50;99.90
34766;DHT22;20984;43.508;1.504;2024-02-26T01:41:59;6.50;99.90
34766;DHT22;20984;43.508;1.504;2024-02-26T01:44:26;6.40;99.90
34766;DHT22;20984;43.508;1.504;2024-02-26T01:46:51;6.30;99.90
34766;DHT22;20984;43.508;1.504;2024-02-26T01:49:18;6.20;99.90
34766;DHT22;20984;43.508;1.504;2024-02-26T01:51:44;6.20;99.90
34766;DHT22;20984;43.508;1.504;2024-02-26T01:54:09;6.10;99.90
34766;DHT22;20984;43.508;1.504;2024-02-26T01:56:35;6.10;99.90
34766;DHT22;20984;43.508;1.504;2024-02-26T01:59:02;6.10;99.90
34766;DHT22;20984;43.508;1.504;2024-02-26T02:01:27;6.10;99.90
34766;DHT22;20984;43.508;1.504;2024-02-26T02:03:54;6.00;99.90
34766;DHT22;20984;43.508;1.504;2024-02-26T02:06:20;5.90;99.90
34766;DHT22;20984;43.508;1.504;2024-02-26T02:08:46;5.90;99.90
34766;DHT22;20984;43.508;1.504;2024-02-26T02:11:12;5.90;99.90
34766;DHT22;20984;43.508;1.504;2024-02-26T02:13:37;5.80;99.90
34766;DHT22;20984;43.508;1.504;2024-02-26T02:16:03;5.70;99.90
34766;DHT22;20984;43.508;1.504;2024-02-26T02:18:29;5.70;99.90
34766;DHT22;20984;43.508;1.504;2024-02-26T02:20:54;5.70;99.90
34766;DHT22;20984;43.508;1.504;2024-02-26T02:23:22;5.70;99.90
34766;DHT22;20984;43.508;1.504;2024-02-26T02:25:47;5.70;99.90
34766;DHT22;20984;43.508;1.504;2024-02-26T02:28:13;5.60;99.90
34766;DHT22;20984;43.508;1.504;2024-02-26T02:30:38;5.70;99.90
34766;DHT22;20984;43.508;1.504;2024-02-26T02:33:04;5.70;99.90
34766;DHT22;20984;43.508;1.504;2024-02-26T02:35:30;5.70;99.90
34766;DHT22;20984;43.508;1.504;2024-02-26T02:37:56;5.60;99.90
34766;DHT22;20984;43.508;1.504;2024-02-26T02:40:22;5.70;99.90
34766;DHT22;20984;43.508;1.504;2024-02-26T02:42:47;5.70;99.90
34766;DHT22;20984;43.508;1.504;2024-02-26T02:45:13;5.70;99.90
34766;DHT22;20984;43.508;1.504;2024-02-26T02:47:38;5.60;99.90
34766;DHT22;20984;43.508;1.504;2024-02-26T02:50:04;5.60;99.90
34766;DHT22;20984;43.508;1.504;2024-02-26T02:52:30;5.70;99.90
34766;DHT22;20984;43.508;1.504;2024-02-26T02:54:55;5.70;99.90
34766;DHT22;20984;43.508;1.504;2024-02-26T02:57:21;5.70;99.90
34766;DHT22;20984;43.508;1.504;2024-02-26T02:59:46;5.60;99.90
34766;DHT22;20984;43.508;1.504;2024-02-26T03:02:12;5.60;99.90
34766;DHT22;20984;43.508;1.504;2024-02-26T03:04:38;5.60;99.90
34766;DHT22;20984;43.508;1.504;2024-02-26T03:07:03;5.60;99.90
34766;DHT22;20984;43.508;1.504;2024-02-26T03:09:29;5.50;99.90
34766;DHT22;20984;43.508;1.504;2024-02-26T03:11:54;5.50;99.90
34766;DHT22;20984;43.508;1.504;2024-02-26T03:14:20;5.50;99.90
34766;DHT22;20984;43.508;1.504;2024-02-26T03:16:45;5.50;99.90
34766;DHT22;20984;43.508;1.504;2024-02-26T03:19:13;5.50;99.90
34766;DHT22;20984;43.508;1.504;2024-02-26T03:21:39;5.60;99.90
34766;DHT22;20984;43.508;1.504;2024-02-26T03:24:05;5.60;99.90
34766;DHT22;20984;43.508;1.504;2024-02-26T03:26:30;5.70;99.90
34766;DHT22;20984;43.508;1.504;2024-02-26T03:28:56;6.40;99.90
34766;DHT22;20984;43.508;1.504;2024-02-26T03:31:22;6.70;99.90
34766;DHT22;20984;43.508;1.504;2024-02-26T03:33:47;6.90;99.90
34766;DHT22;20984;43.508;1.504;2024-02-26T03:36:13;7.10;99.90
34766;DHT22;20984;43.508;1.504;2024-02-26T03:38:38;7.30;99.90
34766;DHT22;20984;43.508;1.504;2024-02-26T03:41:04;7.50;99.90
34766;DHT22;20984;43.508;1.504;2024-02-26T03:43:29;7.60;99.90
34766;DHT22;20984;43.508;1.504;2024-02-26T03:45:55;7.80;99.90
34766;DHT22;20984;43.508;1.504;2024-02-26T03:48:21;7.90;99.90
34766;DHT22;20984;43.508;1.504;2024-02-26T03:50:46;8.00;99.90
34766;DHT22;20984;43.508;1.504;2024-02-26T03:53:12;8.10;99.90
34766;DHT22;20984;43.508;1.504;2024-02-26T03:55:38;8.20;99.90
34766;DHT22;20984;43.508;1.504;2024-02-26T03:58:03;8.30;99.90
34766;DHT22;20984;43.508;1.504;2024-02-26T04:00:29;8.50;99.90
34766;DHT22;20984;43.508;1.504;2024-02-26T04:02:55;8.60;99.90
34766;DHT22;20984;43.508;1.504;2024-02-26T04:05:21;8.60;99.90
34766;DHT22;20984;43.508;1.504;2024-02-26T04:07:46;8.60;99.90
34766;DHT22;20984;43.508;1.504;2024-02-26T04:10:12;8.60;99.90
34766;DHT22;20984;43.508;1.504;2024-02-26T04:12:38;8.70;99.90
34766;DHT22;20984;43.508;1.504;2024-02-26T04:15:04;8.80;99.90
34766;DHT22;20984;43.508;1.504;2024-02-26T04:17:30;9.00;99.90
34766;DHT22;20984;43.508;1.504;2024-02-26T04:19:56;9.10;99.90
34766;DHT22;20984;43.508;1.504;2024-02-26T04:22:21;9.30;99.90
34766;DHT22;20984;43.508;1.504;2024-02-26T04:24:47;9.40;99.90
34766;DHT22;20984;43.508;1.504;2024-02-26T04:27:12;9.40;99.90
34766;DHT22;20984;43.508;1.504;2024-02-26T04:29:38;9.30;99.90
34766;DHT22;20984;43.508;1.504;2024-02-26T04:32:03;9.30;99.90
34766;DHT22;20984;43.508;1.504;2024-02-26T04:34:29;9.30;99.90
34766;DHT22;20984;43.508;1.504;2024-02-26T04:36:54;9.40;99.90
34766;DHT22;20984;43.508;1.504;2024-02-26T04:39:20;9.40;99.90
34766;DHT22;20984;43.508;1.504;2024-02-26T04:41:46;9.40;99.90
34766;DHT22;20984;43.508;1.504;2024-02-26T04:44:11;9.30;99.90
34766;DHT22;20984;43.508;1.504;2024-02-26T04:46:37;9.30;99.90
34766;DHT22;20984;43.508;1.504;2024-02-26T04:49:02;9.30;99.90
34766;DHT22;20984;43.508;1.504;2024-02-26T04:51:28;9.30;99.90
34766;DHT22;20984;43.508;1.504;2024-02-26T04:53:53;9.30;99.90
34766;DHT22;20984;43.508;1.504;2024-02-26T04:56:20;9.30;99.90
34766;DHT22;20984;43.508;1.504;2024-02-26T04:58:46;9.40;99.90
34766;DHT22;20984;43.508;1.504;2024-02-26T05:01:11;9.40;99.90
34766;DHT22;20984;43.508;1.504;2024-02-26T05:03:37;9.50;99.90
34766;DHT22;20984;43.508;1.504;2024-02-26T05:06:03;9.50;99.90
34766;DHT22;20984;43.508;1.504;2024-02-26T05:08:28;9.50;99.90
34766;DHT22;20984;43.508;1.504;2024-02-26T05:10:56;9.50;99.90
34766;DHT22;20984;43.508;1.504;2024-02-26T05:13:21;9.40;99.90
34766;DHT22;20984;43.508;1.504;2024-02-26T05:15:47;9.60;99.90
34766;DHT22;20984;43.508;1.504;2024-02-26T05:18:15;9.60;99.90
34766;DHT22;20984;43.508;1.504;2024-02-26T05:20:40;9.60;99.90
34766;DHT22;20984;43.508;1.504;2024-02-26T05:23:06;9.60;99.90
34766;DHT22;20984;43.508;1.504;2024-02-26T05:25:31;9.50;99.90
34766;DHT22;20984;43.508;1.504;2024-02-26T05:27:57;9.50;99.90
34766;DHT22;20984;43.508;1.504;2024-02-26T05:30:23;9.50;99.90
34766;DHT22;20984;43.508;1.504;2024-02-26T05:32:48;9.50;99.90
34766;DHT22;20984;43.508;1.504;2024-02-26T05:35:14;9.50;99.90
34766;DHT22;20984;43.508;1.504;2024-02-26T05:37:40;9.60;99.90
34766;DHT22;20984;43.508;1.504;2024-02-26T05:40:05;9.50;99.90
34766;DHT22;20984;43.508;1.504;2024-02-26T05:42:31;9.50;99.90
34766;DHT22;20984;43.508;1.504;2024-02-26T05:44:57;9.40;99.90
34766;DHT22;20984;43.508;1.504;2024-02-26T05:47:23;9.30;99.90
34766;DHT22;20984;43.508;1.504;2024-02-26T05:49:48;9.20;99.90
34766;DHT22;20984;43.508;1.504;2024-02-26T05:52:14;9.20;99.90
34766;DHT22;20984;43.508;1.504;2024-02-26T05:54:39;9.10;99.90
34766;DHT22;20984;43.508;1.504;2024-02-26T05:57:05;9.10;99.90
34766;DHT22;20984;43.508;1.504;2024-02-26T05:59:30;9.00;99.90
34766;DHT22;20984;43.508;1.504;2024-02-26T06:01:56;9.00;99.90
34766;DHT22;20984;43.508;1.504;2024-02-26T06:04:21;9.00;99.90
34766;DHT22;20984;43.508;1.504;2024-02-26T06:06:47;9.10;99.90
34766;DHT22;20984;43.508;1.504;2024-02-26T06:09:12;9.10;99.90
34766;DHT22;20984;43.508;1.504;2024-02-26T06:11:38;9.10;99.90
34766;DHT22;20984;43.508;1.504;2024-02-26T06:14:04;8.90;99.90
34766;DHT22;20984;43.508;1.504;2024-02-26T06:16:29;8.90;99.90
34766;DHT22;20984;43.508;1.504;2024-02-26T06:18:55;8.90;99.90
34766;DHT22;20984;43.508;1.504;2024-02-26T06:21:21;8.90;99.90
34766;DHT22;20984;43.508;1.504;2024-02-26T06:23:47;8.80;99.90
34766;DHT22;20984;43.508;1.504;2024-02-26T06:26:13;8.80;99.90
34766;DHT22;20984;43.508;1.504;2024-02-26T06:28:38;8.70;99.90
34766;DHT22;20984;43.508;1.504;2024-02-26T06:31:06;8.60;99.90
34766;DHT22;20984;43.508;1.504;2024-02-26T06:33:34;8.60;99.90
34766;DHT22;20984;43.508;1.504;2024-02-26T06:35:59;8.50;99.90
34766;DHT22;20984;43.508;1.504;2024-02-26T06:38:25;8.50;99.90
34766;DHT22;20984;43.508;1.504;2024-02-26T06:40:50;8.50;99.90
34766;DHT22;20984;43.508;1.504;2024-02-26T06:43:16;8.40;99.90
34766;DHT22;20984;43.508;1.504;2024-02-26T06:45:41;8.50;99.90
34766;DHT22;20984;43.508;1.504;2024-02-26T06:48:07;8.40;99.90
34766;DHT22;20984;43.508;1.504;2024-02-26T06:50:33;8.50;99.90
34766;DHT22;20984;43.508;1.504;2024-02-26T06:52:58;8.60;99.90
34766;DHT22;20984;43.508;1.504;2024-02-26T06:55:24;8.70;99.90
34766;DHT22;20984;43.508;1.504;2024-02-26T06:57:49;8.80;99.90
34766;DHT22;20984;43.508;1.504;2024-02-26T07:00:15;8.80;99.90
34766;DHT22;20984;43.508;1.504;2024-02-26T07:02:42;8.80;99.90
34766;DHT22;20984;43.508;1.504;2024-02-26T07:05:07;8.70;99.90
34766;DHT22;20984;43.508;1.504;2024-02-26T07:07:33;8.70;99.90
34766;DHT22;20984;43.508;1.504;2024-02-26T07:09:59;8.80;99.90
34766;DHT22;20984;43.508;1.504;2024-02-26T07:12:25;8.80;99.90
34766;DHT22;20984;43.508;1.504;2024-02-26T07:14:50;8.80;99.90
34766;DHT22;20984;43.508;1.504;2024-02-26T07:17:17;8.90;99.90
34766;DHT22;20984;43.508;1.504;2024-02-26T07:19:43;8.90;99.90
34766;DHT22;20984;43.508;1.504;2024-02-26T07:22:08;8.90;99.90
34766;DHT22;20984;43.508;1.504;2024-02-26T07:24:34;9.00;99.90
34766;DHT22;20984;43.508;1.504;2024-02-26T07:26:59;9.10;99.90
34766;DHT22;20984;43.508;1.504;2024-02-26T07:29:25;9.10;99.90
34766;DHT22;20984;43.508;1.504;2024-02-26T07:31:50;9.10;99.90
34766;DHT22;20984;43.508;1.504;2024-02-26T07:34:16;9.20;99.90
34766;DHT22;20984;43.508;1.504;2024-02-26T07:36:42;9.30;99.90
34766;DHT22;20984;43.508;1.504;2024-02-26T07:39:07;9.30;99.90
34766;DHT22;20984;43.508;1.504;2024-02-26T07:41:33;9.40;99.90
34766;DHT22;20984;43.508;1.504;2024-02-26T07:43:59;9.50;99.90
34766;DHT22;20984;43.508;1.504;2024-02-26T07:46:24;9.50;99.90
34766;DHT22;20984;43.508;1.504;2024-02-26T07:48:50;9.60;99.90
34766;DHT22;20984;43.508;1.504;2024-02-26T07:51:15;9.70;99.90
34766;DHT22;20984;43.508;1.504;2024-02-26T07:53:41;9.70;99.90
34766;DHT22;20984;43.508;1.504;2024-02-26T07:56:06;9.70;99.90
34766;DHT22;20984;43.508;1.504;2024-02-26T07:58:32;9.80;99.90
34766;DHT22;20984;43.508;1.504;2024-02-26T08:00:58;9.80;99.90
34766;DHT22;20984;43.508;1.504;2024-02-26T08:03:24;9.80;99.90
34766;DHT22;20984;43.508;1.504;2024-02-26T08:05:50;9.90;99.90
34766;DHT22;20984;43.508;1.504;2024-02-26T08:08:16;9.90;99.90
34766;DHT22;20984;43.508;1.504;2024-02-26T08:10:41;10.00;99.90
34766;DHT22;20984;43.508;1.504;2024-02-26T08:13:07;10.10;99.90
34766;DHT22;20984;43.508;1.504;2024-02-26T08:15:33;10.10;99.90
34766;DHT22;20984;43.508;1.504;2024-02-26T08:18:02;10.20;99.90
34766;DHT22;20984;43.508;1.504;2024-02-26T08:20:29;10.20;99.90
34766;DHT22;20984;43.508;1.504;2024-02-26T08:22:55;10.20;99.90
34766;DHT22;20984;43.508;1.504;2024-02-26T08:25:20;10.20;99.90
34766;DHT22;20984;43.508;1.504;2024-02-26T08:27:46;10.30;99.90
34766;DHT22;20984;43.508;1.504;2024-02-26T08:30:13;10.30;99.90
34766;DHT22;20984;43.508;1.504;2024-02-26T08:32:41;10.40;99.90
34766;DHT22;20984;43.508;1.504;2024-02-26T08:35:07;10.40;99.90
34766;DHT22;20984;43.508;1.504;2024-02-26T08:37:33;10.50;99.90
34766;DHT22;20984;43.508;1.504;2024-02-26T08:39:59;10.60;99.90
34766;DHT22;20984;43.508;1.504;2024-02-26T08:42:24;10.60;99.90
34766;DHT22;20984;43.508;1.504;2024-02-26T08:44:49;10.60;99.90
34766;DHT22;20984;43.508;1.504;2024-02-26T08:47:15;10.70;99.90
34766;DHT22;20984;43.508;1.504;2024-02-26T08:49:44;10.70;99.90
34766;DHT22;20984;43.508;1.504;2024-02-26T08:52:10;10.80;99.90
34766;DHT22;20984;43.508;1.504;2024-02-26T08:54:36;10.80;99.90
34766;DHT22;20984;43.508;1.504;2024-02-26T08:57:01;10.90;99.90
34766;DHT22;20984;43.508;1.504;2024-02-26T08:59:28;10.90;99.90
34766;DHT22;20984;43.508;1.504;2024-02-26T09:01:53;11.00;99.90
34766;DHT22;20984;43.508;1.504;2024-02-26T09:04:19;11.00;99.90
34766;DHT22;20984;43.508;1.504;2024-02-26T09:06:45;11.10;99.90
34766;DHT22;20984;43.508;1.504;2024-02-26T09:09:10;11.10;99.90
34766;DHT22;20984;43.508;1.504;2024-02-26T09:11:36;11.20;99.90
34766;DHT22;20984;43.508;1.504;2024-02-26T09:14:02;11.20;99.90
34766;DHT22;20984;43.508;1.504;2024-02-26T09:16:29;11.30;99.90
34766;DHT22;20984;43.508;1.504;2024-02-26T09:18:54;11.30;99.90
34766;DHT22;20984;43.508;1.504;2024-02-26T09:21:20;11.40;99.90
34766;DHT22;20984;43.508;1.504;2024-02-26T09:23:50;11.40;99.90
34766;DHT22;20984;43.508;1.504;2024-02-26T09:26:16;11.50;99.90
34766;DHT22;20984;43.508;1.504;2024-02-26T09:28:42;11.50;99.90
34766;DHT22;20984;43.508;1.504;2024-02-26T09:31:07;11.60;99.90
34766;DHT22;20984;43.508;1.504;2024-02-26T09:33:33;11.60;99.90
34766;DHT22;20984;43.508;1.504;2024-02-26T09:35:58;11.70;99.90
34766;DHT22;20984;43.508;1.504;2024-02-26T09:38:26;11.70;99.90
34766;DHT22;20984;43.508;1.504;2024-02-26T09:40:51;11.80;99.90
34766;DHT22;20984;43.508;1.504;2024-02-26T09:43:17;11.80;99.90
34766;DHT22;20984;43.508;1.504;2024-02-26T09:45:46;11.90;99.90
34766;DHT22;20984;43.508;1.504;2024-02-26T09:48:12;11.90;99.90
34766;DHT22;20984;43.508;1.504;2024-02-26T09:50:40;11.90;99.90
34766;DHT22;20984;43.508;1.504;2024-02-26T09:53:06;12.00;99.90
34766;DHT22;20984;43.508;1.504;2024-02-26T09:55:35;12.00;99.90
34766;DHT22;20984;43.508;1.504;2024-02-26T09:58:01;12.10;99.90
34766;DHT22;20984;43.508;1.504;2024-02-26T10:00:27;12.20;99.90
34766;DHT22;20984;43.508;1.504;2024-02-26T10:02:57;12.20;99.90
34766;DHT22;20984;43.508;1.504;2024-02-26T10:05:23;12.20;99.90
34766;DHT22;20984;43.508;1.504;2024-02-26T10:07:50;12.20;99.90
34766;DHT22;20984;43.508;1.504;2024-02-26T10:10:17;12.30;99.90
34766;DHT22;20984;43.508;1.504;2024-02-26T10:12:43;12.20;99.90
34766;DHT22;20984;43.508;1.504;2024-02-26T10:15:08;12.30;99.90
34766;DHT22;20984;43.508;1.504;2024-02-26T10:17:34;12.40;99.90
34766;DHT22;20984;43.508;1.504;2024-02-26T10:20:10;12.50;99.90
34766;DHT22;20984;43.508;1.504;2024-02-26T10:22:36;12.50;99.90
34766;DHT22;20984;43.508;1.504;2024-02-26T10:25:02;12.60;99.90
34766;DHT22;20984;43.508;1.504;2024-02-26T10:27:28;12.60;99.90
34766;DHT22;20984;43.508;1.504;2024-02-26T10:29:56;12.60;99.90
34766;DHT22;20984;43.508;1.504;2024-02-26T10:32:22;12.60;99.90
34766;DHT22;20984;43.508;1.504;2024-02-26T10:34:47;12.60;99.90
34766;DHT22;20984;43.508;1.504;2024-02-26T10:37:13;12.60;99.90
34766;DHT22;20984;43.508;1.504;2024-02-26T10:39:39;12.60;99.90
34766;DHT22;20984;43.508;1.504;2024-02-26T10:42:12;12.60;99.90
34766;DHT22;20984;43.508;1.504;2024-02-26T10:44:39;12.70;99.90
34766;DHT22;20984;43.508;1.504;2024-02-26T10:47:05;12.70;99.90
34766;DHT22;20984;43.508;1.504;2024-02-26T10:49:31;12.70;99.90
34766;DHT22;20984;43.508;1.504;2024-02-26T10:51:58;12.80;99.90
34766;DHT22;20984;43.508;1.504;2024-02-26T10:54:25;12.80;99.90
34766;DHT22;20984;43.508;1.504;2024-02-26T10:56:51;12.80;99.90
34766;DHT22;20984;43.508;1.504;2024-02-26T10:59:18;12.80;99.90
34766;DHT22;20984;43.508;1.504;2024-02-26T11:01:47;12.80;99.90
34766;DHT22;20984;43.508;1.504;2024-02-26T11:04:12;12.90;99.90
34766;DHT22;20984;43.508;1.504;2024-02-26T11:06:38;12.90;99.90
34766;DHT22;20984;43.508;1.504;2024-02-26T11:09:04;13.00;99.90
34766;DHT22;20984;43.508;1.504;2024-02-26T11:11:31;13.10;99.90
34766;DHT22;20984;43.508;1.504;2024-02-26T11:13:57;13.10;99.90
34766;DHT22;20984;43.508;1.504;2024-02-26T11:16:23;13.20;99.90
34766;DHT22;20984;43.508;1.504;2024-02-26T11:18:49;13.40;99.90
34766;DHT22;20984;43.508;1.504;2024-02-26T11:21:15;13.60;99.90
34766;DHT22;20984;43.508;1.504;2024-02-26T11:23:40;13.60;99.90
34766;DHT22;20984;43.508;1.504;2024-02-26T11:26:06;13.50;99.90
34766;DHT22;20984;43.508;1.504;2024-02-26T11:28:32;13.60;99.90
34766;DHT22;20984;43.508;1.504;2024-02-26T11:30:59;13.70;99.90
34766;DHT22;20984;43.508;1.504;2024-02-26T11:33:26;13.90;99.90
34766;DHT22;20984;43.508;1.504;2024-02-26T11:35:51;14.10;99.90
34766;DHT22;20984;43.508;1.504;2024-02-26T11:38:20;14.00;99.90
34766;DHT22;20984;43.508;1.504;2024-02-26T11:40:47;14.00;99.90
34766;DHT22;20984;43.508;1.504;2024-02-26T11:43:12;13.70;99.90
34766;DHT22;20984;43.508;1.504;2024-02-26T11:48:11;13.40;99.90
34766;DHT22;20984;43.508;1.504;2024-02-26T11:50:40;13.30;99.90
34766;DHT22;20984;43.508;1.504;2024-02-26T11:55:47;13.50;99.90
34766;DHT22;20984;43.508;1.504;2024-02-26T11:58:13;13.70;99.90
34766;DHT22;20984;43.508;1.504;2024-02-26T12:00:42;13.90;99.90
34766;DHT22;20984;43.508;1.504;2024-02-26T12:03:07;14.10;99.90
34766;DHT22;20984;43.508;1.504;2024-02-26T12:05:35;14.10;99.90
34766;DHT22;20984;43.508;1.504;2024-02-26T12:13:14;14.00;99.90
34766;DHT22;20984;43.508;1.504;2024-02-26T12:15:41;13.90;99.90
34766;DHT22;20984;43.508;1.504;2024-02-26T12:18:07;13.90;99.90
34766;DHT22;20984;43.508;1.504;2024-02-26T12:20:35;13.90;99.90
34766;DHT22;20984;43.508;1.504;2024-02-26T12:23:01;13.90;99.90
34766;DHT22;20984;43.508;1.504;2024-02-26T12:25:28;14.00;99.90
34766;DHT22;20984;43.508;1.504;2024-02-26T12:27:54;14.00;99.90
34766;DHT22;20984;43.508;1.504;2024-02-26T12:30:20;14.00;99.90
34766;DHT22;20984;43.508;1.504;2024-02-26T12:32:49;14.00;99.90
34766;DHT22;20984;43.508;1.504;2024-02-26T12:35:15;13.90;99.90
34766;DHT22;20984;43.508;1.504;2024-02-26T12:37:41;13.90;99.90
34766;DHT22;20984;43.508;1.504;2024-02-26T12:40:11;14.00;99.90
34766;DHT22;20984;43.508;1.504;2024-02-26T12:42:36;14.00;99.90
34766;DHT22;20984;43.508;1.504;2024-02-26T12:45:06;14.00;99.90
34766;DHT22;20984;43.508;1.504;2024-02-26T12:47:37;14.10;99.90
34766;DHT22;20984;43.508;1.504;2024-02-26T12:50:03;14.10;99.90
34766;DHT22;20984;43.508;1.504;2024-02-26T12:52:32;14.10;99.90
34766;DHT22;20984;43.508;1.504;2024-02-26T12:54:58;14.20;99.90
34766;DHT22;20984;43.508;1.504;2024-02-26T12:57:23;14.20;99.90
34766;DHT22;20984;43.508;1.504;2024-02-26T12:59:49;14.30;99.90
34766;DHT22;20984;43.508;1.504;2024-02-26T13:02:15;14.40;99.90
34766;DHT22;20984;43.508;1.504;2024-02-26T13:04:40;14.30;99.90
34766;DHT22;20984;43.508;1.504;2024-02-26T13:07:06;14.30;99.90
34766;DHT22;20984;43.508;1.504;2024-02-26T13:09:32;14.40;99.90
34766;DHT22;20984;43.508;1.504;2024-02-26T13:11:59;14.50;99.90
34766;DHT22;20984;43.508;1.504;2024-02-26T13:14:26;14.50;99.90
34766;DHT22;20984;43.508;1.504;2024-02-26T13:16:55;14.50;99.90
34766;DHT22;20984;43.508;1.504;2024-02-26T13:19:21;14.40;99.90
34766;DHT22;20984;43.508;1.504;2024-02-26T13:21:47;14.30;99.90
34766;DHT22;20984;43.508;1.504;2024-02-26T13:24:13;14.30;99.90
34766;DHT22;20984;43.508;1.504;2024-02-26T13:26:39;14.30;99.90
34766;DHT22;20984;43.508;1.504;2024-02-26T13:29:04;14.30;99.90
34766;DHT22;20984;43.508;1.504;2024-02-26T13:31:30;14.20;99.90
34766;DHT22;20984;43.508;1.504;2024-02-26T13:33:56;14.30;99.90
34766;DHT22;20984;43.508;1.504;2024-02-26T13:36:22;14.40;99.90
34766;DHT22;20984;43.508;1.504;2024-02-26T13:38:54;14.40;99.90
34766;DHT22;20984;43.508;1.504;2024-02-26T13:41:20;14.30;99.90
34766;DHT22;20984;43.508;1.504;2024-02-26T13:43:46;14.40;99.90
34766;DHT22;20984;43.508;1.504;2024-02-26T13:46:12;14.40;99.90
34766;DHT22;20984;43.508;1.504;2024-02-26T13:48:39;14.40;99.90
34766;DHT22;20984;43.508;1.504;2024-02-26T13:51:04;14.50;99.90
34766;DHT22;20984;43.508;1.504;2024-02-26T13:53:30;14.40;99.90
34766;DHT22;20984;43.508;1.504;2024-02-26T13:55:55;14.40;99.90
34766;DHT22;20984;43.508;1.504;2024-02-26T13:58:22;14.40;99.90
34766;DHT22;20984;43.508;1.504;2024-02-26T14:00:49;14.30;99.90
34766;DHT22;20984;43.508;1.504;2024-02-26T14:03:14;14.30;99.90
34766;DHT22;20984;43.508;1.504;2024-02-26T14:05:40;14.30;99.90
34766;DHT22;20984;43.508;1.504;2024-02-26T14:08:06;14.30;99.90
34766;DHT22;20984;43.508;1.504;2024-02-26T14:10:32;14.40;99.90
34766;DHT22;20984;43.508;1.504;2024-02-26T14:12:58;14.30;99.90
34766;DHT22;20984;43.508;1.504;2024-02-26T14:15:24;14.30;99.90
34766;DHT22;20984;43.508;1.504;2024-02-26T14:17:52;14.30;99.90
34766;DHT22;20984;43.508;1.504;2024-02-26T14:20:21;14.30;99.90
34766;DHT22;20984;43.508;1.504;2024-02-26T14:22:47;14.30;99.90
34766;DHT22;20984;43.508;1.504;2024-02-26T14:25:13;14.30;99.90
34766;DHT22;20984;43.508;1.504;2024-02-26T14:27:39;14.30;99.90
34766;DHT22;20984;43.508;1.504;2024-02-26T14:30:04;14.30;99.90
34766;DHT22;20984;43.508;1.504;2024-02-26T14:32:30;14.40;99.90
34766;DHT22;20984;43.508;1.504;2024-02-26T14:35:00;14.40;99.90
34766;DHT22;20984;43.508;1.504;2024-02-26T14:37:25;14.30;99.90
34766;DHT22;20984;43.508;1.504;2024-02-26T14:39:51;14.30;99.90
34766;DHT22;20984;43.508;1.504;2024-02-26T14:42:18;14.20;99.90
34766;DHT22;20984;43.508;1.504;2024-02-26T14:44:43;14.30;99.90
34766;DHT22;20984;43.508;1.504;2024-02-26T14:47:09;14.20;99.90
34766;DHT22;20984;43.508;1.504;2024-02-26T14:49:35;14.30;99.90
34766;DHT22;20984;43.508;1.504;2024-02-26T14:52:00;14.20;99.90
34766;DHT22;20984;43.508;1.504;2024-02-26T14:54:28;14.30;99.90
34766;DHT22;20984;43.508;1.504;2024-02-26T14:56:58;14.40;99.90
34766;DHT22;20984;43.508;1.504;2024-02-26T14:59:23;14.30;99.90
34766;DHT22;20984;43.508;1.504;2024-02-26T15:01:49;14.40;99.90
34766;DHT22;20984;43.508;1.504;2024-02-26T15:04:14;14.40;99.90
34766;DHT22;20984;43.508;1.504;2024-02-26T15:06:40;14.50;99.90
34766;DHT22;20984;43.508;1.504;2024-02-26T15:09:06;14.60;99.90
34766;DHT22;20984;43.508;1.504;2024-02-26T15:11:32;14.70;99.90
34766;DHT22;20984;43.508;1.504;2024-02-26T15:13:57;14.70;99.90
34766;DHT22;20984;43.508;1.504;2024-02-26T15:16:23;14.60;99.90
34766;DHT22;20984;43.508;1.504;2024-02-26T15:18:48;14.50;99.90
34766;DHT22;20984;43.508;1.504;2024-02-26T15:21:14;14.50;99.90
34766;DHT22;20984;43.508;1.504;2024-02-26T15:23:42;14.30;99.90
34766;DHT22;20984;43.508;1.504;2024-02-26T15:26:09;14.20;99.90
34766;DHT22;20984;43.508;1.504;2024-02-26T15:28:34;14.10;99.90
34766;DHT22;20984;43.508;1.504;2024-02-26T15:31:00;14.00;99.90
34766;DHT22;20984;43.508;1.504;2024-02-26T15:33:25;14.00;99.90
34766;DHT22;20984;43.508;1.504;2024-02-26T15:35:51;13.90;99.90
34766;DHT22;20984;43.508;1.504;2024-02-26T15:38:16;13.80;99.90
34766;DHT22;20984;43.508;1.504;2024-02-26T15:40:42;13.70;99.90
34766;DHT22;20984;43.508;1.504;2024-02-26T15:43:07;13.50;99.90